createdAt,value
2023-01-08T00:00:11.890Z,100283.44
2023-01-08T00:07:46.317Z,100269.03
2023-01-08T00:15:18.098Z,100260.09
2023-01-08T00:22:50.525Z,100264.88
2023-01-08T00:30:22.343Z,100254.53
2023-01-08T00:37:54.205Z,100240.91
2023-01-08T00:45:25.949Z,100239.28
2023-01-08T00:52:57.839Z,100214.91
2023-01-08T01:00:29.676Z,100211.69
2023-01-08T01:08:01.463Z,100208.13
2023-01-08T01:15:33.235Z,100211.97
2023-01-08T01:23:05.089Z,100206.00
2023-01-08T01:30:36.882Z,100213.41
2023-01-08T01:38:08.631Z,100191.50
2023-01-08T01:45:40.498Z,100199.16
2023-01-08T01:53:16.419Z,100203.84
2023-01-08T02:00:48.278Z,100174.81
2023-01-08T02:08:56.091Z,100182.50
2023-01-08T02:16:40.302Z,100161.41
2023-01-08T02:24:20.301Z,100136.53
2023-01-08T02:31:52.073Z,100114.63
2023-01-08T02:40:18.093Z,100124.47
2023-01-08T02:48:07.955Z,100120.09
2023-01-08T02:55:41.539Z,100112.50
2023-01-08T03:03:26.082Z,100096.06
2023-01-08T03:11:04.434Z,100076.38
2023-01-08T03:18:41.512Z,100081.56
2023-01-08T03:26:15.396Z,100079.94
2023-01-08T03:33:47.147Z,100075.56
2023-01-08T03:41:20.061Z,100076.38
2023-01-08T03:48:51.793Z,100063.81
2023-01-08T03:56:23.559Z,100063.81
2023-01-08T04:03:55.385Z,100077.00
2023-01-08T04:11:27.403Z,100072.34
2023-01-08T04:18:59.230Z,100077.81
2023-01-08T04:26:31.042Z,100065.25
2023-01-08T04:34:02.883Z,100058.94
2023-01-08T04:41:34.628Z,100037.00
2023-01-08T04:49:06.390Z,100029.63
2023-01-08T04:56:38.114Z,100016.25
2023-01-08T05:04:10.332Z,100041.38
2023-01-08T05:11:43.157Z,100027.69
2023-01-08T05:19:14.934Z,100020.09
2023-01-08T05:26:46.669Z,100011.88
2023-01-08T05:34:18.376Z,100004.78
2023-01-08T05:41:50.131Z,99997.66
2023-01-08T05:49:22.095Z,100008.63
2023-01-08T05:56:53.889Z,99983.97
2023-01-08T06:04:25.736Z,99985.91
2023-01-08T06:11:58.096Z,99975.75
2023-01-08T06:19:29.930Z,99975.75
2023-01-08T06:27:01.652Z,99967.84
2023-01-08T06:34:33.408Z,99963.19
2023-01-08T06:42:05.164Z,99961.56
2023-01-08T06:49:36.942Z,99964.63
2023-01-08T06:57:08.622Z,99958.31
2023-01-08T07:04:40.358Z,99958.31
2023-01-08T07:12:14.771Z,99959.94
2023-01-08T07:19:46.501Z,99961.38
2023-01-08T07:27:18.911Z,99963.31
2023-01-08T07:34:50.664Z,99965.22
2023-01-08T07:42:22.614Z,99964.41
2023-01-08T07:49:54.450Z,99971.50
2023-01-08T07:57:26.197Z,99968.78
2023-01-08T08:04:57.918Z,99968.25
2023-01-08T08:12:29.824Z,99952.97
2023-01-08T08:20:01.683Z,99958.44
2023-01-08T08:27:33.662Z,99963.09
2023-01-08T08:35:06.010Z,99957.31
2023-01-08T08:42:37.778Z,99939.28
2023-01-08T08:50:10.117Z,99929.44
2023-01-08T08:57:41.893Z,99936.53
2023-01-08T09:05:13.643Z,99938.44
2023-01-08T09:12:45.412Z,99913.50
2023-01-08T09:20:17.130Z,99894.41
2023-01-08T09:27:49.019Z,99892.38
2023-01-08T09:35:20.871Z,99926.22
2023-01-08T09:42:58.041Z,99935.75
2023-01-08T09:50:30.492Z,99934.34
2023-01-08T09:58:03.403Z,99947.09
2023-01-08T10:05:35.311Z,99938.28
2023-01-08T10:13:07.309Z,99916.06
2023-01-08T10:20:39.393Z,99904.50
2023-01-08T10:28:19.534Z,99890.16
2023-01-08T10:35:57.438Z,99887.63
2023-01-08T10:43:53.795Z,99890.03
2023-01-08T10:51:27.558Z,99894.38
2023-01-08T10:58:59.329Z,99891.34
2023-01-08T11:06:37.318Z,99879.25
2023-01-08T11:14:31.709Z,99857.31
2023-01-08T11:22:23.705Z,99852.66
2023-01-08T11:30:23.217Z,99839.97
2023-01-08T11:38:00.141Z,99823.53
2023-01-08T11:45:54.060Z,99826.75
2023-01-08T11:53:46.290Z,99830.00
2023-01-08T12:02:07.194Z,99824.50
2023-01-08T12:09:42.324Z,99798.41
2023-01-08T12:17:26.512Z,99783.56
2023-01-08T12:25:13.307Z,99789.88
2023-01-08T12:32:49.492Z,99771.00
2023-01-08T12:40:32.062Z,99772.59
2023-01-08T12:48:11.644Z,99771.47
2023-01-08T12:56:33.366Z,99771.97
2023-01-08T13:04:06.062Z,99768.75
2023-01-08T13:11:38.494Z,99752.28
2023-01-08T13:19:35.038Z,99759.72
2023-01-08T13:27:18.729Z,99748.44
2023-01-08T13:35:12.834Z,99745.69
2023-01-08T13:42:44.697Z,99732.00
2023-01-08T13:50:20.825Z,99733.91
2023-01-08T13:57:55.328Z,99732.78
2023-01-08T14:05:30.077Z,99732.16
2023-01-08T14:13:07.585Z,99725.06
2023-01-08T14:20:40.958Z,99719.59
2023-01-08T14:28:15.843Z,99719.59
2023-01-08T14:35:47.627Z,99723.44
2023-01-08T14:43:20.123Z,99720.72
2023-01-08T14:51:04.432Z,99717.16
2023-01-08T14:58:38.441Z,99718.75
2023-01-08T15:06:13.929Z,99712.47
2023-01-08T15:13:47.150Z,99697.66
2023-01-08T15:21:19.710Z,99692.19
2023-01-08T15:29:00.299Z,99702.50
2023-01-08T15:36:32.020Z,99697.81
2023-01-08T15:44:04.529Z,99705.09
2023-01-08T15:51:42.628Z,99700.94
2023-01-08T15:59:14.419Z,99704.78
2023-01-08T16:06:46.147Z,99714.78
2023-01-08T16:14:17.955Z,99706.22
2023-01-08T16:21:50.123Z,99707.06
2023-01-08T16:29:21.993Z,99703.19
2023-01-08T16:36:53.756Z,99696.56
2023-01-08T16:44:28.601Z,99697.72
2023-01-08T16:52:00.521Z,99690.88
2023-01-08T16:59:33.041Z,99670.25
2023-01-08T17:07:04.933Z,99653.97
2023-01-08T17:14:36.889Z,99650.75
2023-01-08T17:22:08.609Z,99665.44
2023-01-08T17:29:40.392Z,99636.91
2023-01-08T17:37:12.162Z,99637.88
2023-01-08T17:44:43.973Z,99640.78
2023-01-08T17:52:15.727Z,99643.22
2023-01-08T17:59:48.331Z,99629.19
2023-01-08T18:07:20.582Z,99619.81
2023-01-08T18:14:54.636Z,99624.63
2023-01-08T18:22:27.256Z,99620.13
2023-01-08T18:29:59.393Z,99618.69
2023-01-08T18:37:43.241Z,99621.94
2023-01-08T18:45:16.753Z,99610.63
2023-01-08T18:52:48.577Z,99597.72
2023-01-08T19:00:20.851Z,99584.81
2023-01-08T19:07:52.651Z,99584.50
2023-01-08T19:15:25.816Z,99585.63
2023-01-08T19:22:58.773Z,99584.50
2023-01-08T19:30:30.618Z,99582.88
2023-01-08T19:38:02.371Z,99588.84
2023-01-08T19:45:37.386Z,99584.50
2023-01-08T19:53:10.651Z,99573.53
2023-01-08T20:00:42.478Z,99573.53
2023-01-08T20:08:14.251Z,99568.84
2023-01-08T20:15:55.241Z,99557.09
2023-01-08T20:23:27.038Z,99552.06
2023-01-08T20:31:17.532Z,99537.91
2023-01-08T20:38:54.081Z,99534.81
2023-01-08T20:46:30.268Z,99525.16
2023-01-08T20:54:02.755Z,99519.50
2023-01-08T21:01:35.612Z,99529.16
2023-01-08T21:09:08.918Z,99515.78
2023-01-08T21:16:40.904Z,99513.03
2023-01-08T21:24:12.859Z,99500.31
2023-01-08T21:31:44.863Z,99494.34
2023-01-08T21:39:16.689Z,99478.56
2023-01-08T21:46:48.477Z,99477.56
2023-01-08T21:54:20.243Z,99474.34
2023-01-08T22:01:52.132Z,99452.28
2023-01-08T22:09:24.078Z,99442.94
2023-01-08T22:16:55.898Z,99438.56
2023-01-08T22:24:27.645Z,99430.69
2023-01-08T22:31:59.663Z,99427.94
2023-01-08T22:39:31.841Z,99409.09
2023-01-08T22:47:05.993Z,99419.88
2023-01-08T22:54:38.607Z,99414.06
2023-01-08T23:02:10.445Z,99403.91
2023-01-08T23:09:42.254Z,99385.06
2023-01-08T23:17:14.075Z,99378.00
2023-01-08T23:24:45.997Z,99377.16
2023-01-08T23:32:17.729Z,99368.63
2023-01-08T23:39:49.539Z,99361.38
2023-01-08T23:47:21.427Z,99344.44
2023-01-08T23:54:53.229Z,99358.63
